createdAt,value
2018-06-08T00:00:31.538Z,989.45
2018-06-08T00:01:31.479Z,989.43
2018-06-08T00:02:31.419Z,989.43
2018-06-08T00:03:31.353Z,989.43
2018-06-08T00:04:31.279Z,989.44
2018-06-08T00:05:31.219Z,989.43
2018-06-08T00:06:31.168Z,989.44
2018-06-08T00:07:31.105Z,989.40
2018-06-08T00:08:31.037Z,989.38
2018-06-08T00:09:30.985Z,989.35
2018-06-08T00:10:30.913Z,989.34
2018-06-08T00:11:30.843Z,989.37
2018-06-08T00:12:30.801Z,989.37
2018-06-08T00:13:30.728Z,989.38
2018-06-08T00:14:30.682Z,989.37
2018-06-08T00:15:30.605Z,989.40
2018-06-08T00:16:30.547Z,989.34
2018-06-08T00:17:30.493Z,989.36
2018-06-08T00:18:30.425Z,989.33
2018-06-08T00:19:30.354Z,989.30
2018-06-08T00:20:30.295Z,989.29
2018-06-08T00:21:30.229Z,989.31
2018-06-08T00:22:30.176Z,989.28
2018-06-08T00:23:30.102Z,989.28
2018-06-08T00:24:30.042Z,989.28
2018-06-08T00:25:29.983Z,989.25
2018-06-08T00:26:29.923Z,989.26
2018-06-08T00:27:29.881Z,989.28
2018-06-08T00:28:29.800Z,989.22
2018-06-08T00:29:29.734Z,989.22
2018-06-08T00:30:29.669Z,989.21
2018-06-08T00:31:29.610Z,989.22
2018-06-08T00:32:29.538Z,989.21
2018-06-08T00:33:29.514Z,989.19
2018-06-08T00:34:29.437Z,989.22
2018-06-08T00:35:29.358Z,989.23
2018-06-08T00:36:29.299Z,989.26
2018-06-08T00:37:29.236Z,989.26
2018-06-08T00:38:29.168Z,989.21
2018-06-08T00:39:29.115Z,989.19
2018-06-08T00:40:29.047Z,989.21
2018-06-08T00:41:28.992Z,989.18
2018-06-08T00:42:28.931Z,989.21
2018-06-08T00:43:28.863Z,989.19
2018-06-08T00:44:28.814Z,989.19
2018-06-08T00:45:28.748Z,989.16
2018-06-08T00:46:28.675Z,989.19
2018-06-08T00:47:28.618Z,989.12
2018-06-08T00:48:28.632Z,989.11
2018-06-08T00:49:28.488Z,989.11
2018-06-08T00:50:28.431Z,989.08
2018-06-08T00:51:28.365Z,989.07
2018-06-08T00:52:28.314Z,989.05
2018-06-08T00:53:28.245Z,989.05
2018-06-08T00:54:28.173Z,989.04
2018-06-08T00:55:28.117Z,989.01
2018-06-08T00:56:28.044Z,989.01
2018-06-08T00:57:28.004Z,989.04
2018-06-08T00:58:27.934Z,988.96
2018-06-08T00:59:27.859Z,988.94
2018-06-08T01:00:27.805Z,988.97
2018-06-08T01:01:27.748Z,988.97
2018-06-08T01:02:27.673Z,988.93
2018-06-08T01:03:27.608Z,988.93
2018-06-08T01:04:27.558Z,988.96
2018-06-08T01:05:27.503Z,988.93
2018-06-08T01:06:27.425Z,988.92
2018-06-08T01:07:27.362Z,988.93
2018-06-08T01:08:27.295Z,988.92
2018-06-08T01:09:27.240Z,988.88
2018-06-08T01:10:27.176Z,988.89
2018-06-08T01:11:27.122Z,988.87
2018-06-08T01:12:27.068Z,988.84
2018-06-08T01:13:26.982Z,988.89
2018-06-08T01:14:26.919Z,988.86
2018-06-08T01:15:26.876Z,988.85
2018-06-08T01:16:26.807Z,988.89
2018-06-08T01:17:26.742Z,988.87
2018-06-08T01:18:26.679Z,988.87
2018-06-08T01:19:26.619Z,988.89
2018-06-08T01:20:26.571Z,988.87
2018-06-08T01:21:26.499Z,988.90
2018-06-08T01:22:26.437Z,988.90
2018-06-08T01:23:26.373Z,988.84
2018-06-08T01:24:26.316Z,988.83
2018-06-08T01:25:26.243Z,988.82
2018-06-08T01:26:26.172Z,988.82
2018-06-08T01:27:26.130Z,988.82
2018-06-08T01:28:26.051Z,988.81
2018-06-08T01:29:26.003Z,988.84
2018-06-08T01:30:25.927Z,988.81
2018-06-08T01:31:25.872Z,988.78
2018-06-08T01:32:25.799Z,988.82
2018-06-08T01:33:25.750Z,988.80
2018-06-08T01:34:25.684Z,988.82
2018-06-08T01:35:25.619Z,988.82
2018-06-08T01:36:25.560Z,988.82
2018-06-08T01:37:25.525Z,988.77
2018-06-08T01:38:25.432Z,988.74
2018-06-08T01:39:25.364Z,988.77
2018-06-08T01:40:25.309Z,988.75
2018-06-08T01:41:25.241Z,988.75
2018-06-08T01:42:25.170Z,988.71
2018-06-08T01:43:25.120Z,988.71
2018-06-08T01:44:25.058Z,988.68
2018-06-08T01:45:24.995Z,988.68
2018-06-08T01:46:24.927Z,988.69
2018-06-08T01:47:24.862Z,988.63
2018-06-08T01:48:24.795Z,988.63
2018-06-08T01:49:24.751Z,988.60
2018-06-08T01:50:24.666Z,988.62
2018-06-08T01:51:24.598Z,988.63
2018-06-08T01:52:24.548Z,988.65
2018-06-08T01:53:24.488Z,988.66
2018-06-08T01:54:24.426Z,988.64
2018-06-08T01:55:24.362Z,988.64
2018-06-08T01:56:24.304Z,988.67
2018-06-08T01:57:24.230Z,988.67
2018-06-08T01:58:24.166Z,988.65
2018-06-08T01:59:24.116Z,988.67
2018-06-08T02:00:24.049Z,988.63
2018-06-08T02:01:23.996Z,988.66
2018-06-08T02:02:23.911Z,988.66
2018-06-08T02:03:23.866Z,988.63
2018-06-08T02:04:23.803Z,988.64
2018-06-08T02:05:23.732Z,988.61
2018-06-08T02:06:23.671Z,988.65
2018-06-08T02:07:23.608Z,988.64
2018-06-08T02:08:23.548Z,988.61
2018-06-08T02:09:23.485Z,988.67
2018-06-08T02:10:23.409Z,988.65
2018-06-08T02:11:23.347Z,988.66
2018-06-08T02:12:23.306Z,988.65
2018-06-08T02:13:23.228Z,988.68
2018-06-08T02:14:23.159Z,988.68
2018-06-08T02:15:23.114Z,988.68
2018-06-08T02:16:23.036Z,988.71
2018-06-08T02:17:22.981Z,988.70
2018-06-08T02:18:22.916Z,988.76
2018-06-08T02:19:22.862Z,988.74
2018-06-08T02:20:22.783Z,988.78
2018-06-08T02:21:22.737Z,988.75
2018-06-08T02:22:22.670Z,988.78
2018-06-08T02:23:22.614Z,988.76
2018-06-08T02:24:22.544Z,988.80
2018-06-08T02:25:22.483Z,988.75
2018-06-08T02:26:22.415Z,988.79
2018-06-08T02:27:22.347Z,988.79
2018-06-08T02:28:22.294Z,988.75
2018-06-08T02:29:22.216Z,988.75
2018-06-08T02:30:22.174Z,988.77
2018-06-08T02:31:22.110Z,988.75
2018-06-08T02:32:22.051Z,988.76
2018-06-08T02:33:21.969Z,988.72
2018-06-08T02:34:21.909Z,988.72
2018-06-08T02:35:21.869Z,988.70
2018-06-08T02:36:21.789Z,988.69
2018-06-08T02:37:21.726Z,988.66
2018-06-08T02:38:21.678Z,988.70
2018-06-08T02:39:21.593Z,988.62
2018-06-08T02:40:21.541Z,988.66
2018-06-08T02:41:21.476Z,988.61
2018-06-08T02:42:21.418Z,988.61
2018-06-08T02:43:21.359Z,988.63
2018-06-08T02:44:21.299Z,988.58
2018-06-08T02:45:21.231Z,988.57
2018-06-08T02:46:21.160Z,988.58
2018-06-08T02:47:21.106Z,988.62
2018-06-08T02:48:21.030Z,988.60
2018-06-08T02:49:20.988Z,988.57
2018-06-08T02:50:20.914Z,988.57
2018-06-08T02:51:20.839Z,988.53
2018-06-08T02:52:20.784Z,988.57
2018-06-08T02:53:20.740Z,988.56
2018-06-08T02:54:20.654Z,988.56
2018-06-08T02:55:20.598Z,988.56
2018-06-08T02:56:20.529Z,988.59
2018-06-08T02:57:20.465Z,988.64
2018-06-08T02:58:20.396Z,988.65
2018-06-08T02:59:20.352Z,988.70
2018-06-08T03:00:20.295Z,988.70
2018-06-08T03:01:20.217Z,988.70
2018-06-08T03:02:20.163Z,988.72
2018-06-08T03:03:20.097Z,988.71
2018-06-08T03:04:20.038Z,988.74
2018-06-08T03:05:19.999Z,988.70
2018-06-08T03:06:19.900Z,988.71
2018-06-08T03:07:19.844Z,988.71
2018-06-08T03:08:19.770Z,988.72
2018-06-08T03:09:19.702Z,988.73
2018-06-08T03:10:19.652Z,988.72
2018-06-08T03:11:19.588Z,988.70
2018-06-08T03:12:19.522Z,988.70
2018-06-08T03:13:19.468Z,988.70
2018-06-08T03:14:19.425Z,988.67
2018-06-08T03:15:19.328Z,988.68
2018-06-08T03:16:19.278Z,988.68
2018-06-08T03:17:19.206Z,988.68
2018-06-08T03:18:19.148Z,988.69
2018-06-08T03:19:19.091Z,988.65
2018-06-08T03:20:19.020Z,988.66
2018-06-08T03:21:18.957Z,988.63
2018-06-08T03:22:18.897Z,988.66
2018-06-08T03:23:18.831Z,988.65
2018-06-08T03:24:18.761Z,988.64
2018-06-08T03:25:18.716Z,988.63
2018-06-08T03:26:18.630Z,988.62
2018-06-08T03:27:18.597Z,988.64
2018-06-08T03:28:18.541Z,988.63
2018-06-08T03:29:18.448Z,988.58
2018-06-08T03:30:18.395Z,988.62
2018-06-08T03:31:18.330Z,988.61
2018-06-08T03:32:18.256Z,988.60
2018-06-08T03:33:18.212Z,988.57
2018-06-08T03:34:18.134Z,988.58
2018-06-08T03:35:18.073Z,988.61
2018-06-08T03:36:18.023Z,988.56
2018-06-08T03:37:17.948Z,988.58
2018-06-08T03:38:17.882Z,988.59
2018-06-08T03:39:17.819Z,988.57
2018-06-08T03:40:17.756Z,988.58
2018-06-08T03:41:17.700Z,988.57
2018-06-08T03:42:17.622Z,988.55
2018-06-08T03:43:17.578Z,988.61
2018-06-08T03:44:17.510Z,988.61
2018-06-08T03:45:17.440Z,988.56
2018-06-08T03:46:17.382Z,988.56
2018-06-08T03:47:17.313Z,988.58
2018-06-08T03:48:17.244Z,988.59
2018-06-08T03:49:17.184Z,988.55
2018-06-08T03:50:17.126Z,988.60
2018-06-08T03:51:17.075Z,988.59
2018-06-08T03:52:17.012Z,988.57
2018-06-08T03:53:16.962Z,988.60
2018-06-08T03:54:16.867Z,988.59
2018-06-08T03:55:16.809Z,988.58
2018-06-08T03:56:16.749Z,988.59
2018-06-08T03:57:16.723Z,988.58
2018-06-08T03:58:16.619Z,988.59
2018-06-08T03:59:16.561Z,988.55
2018-06-08T04:00:16.487Z,988.56
2018-06-08T04:01:16.444Z,988.56
2018-06-08T04:02:16.363Z,988.57
2018-06-08T04:03:16.318Z,988.55
2018-06-08T04:04:16.245Z,988.54
2018-06-08T04:05:16.185Z,988.55
2018-06-08T04:06:16.109Z,988.55
2018-06-08T04:07:16.043Z,988.54
2018-06-08T04:08:15.993Z,988.55
2018-06-08T04:09:15.951Z,988.56
2018-06-08T04:10:15.860Z,988.58
2018-06-08T04:11:15.809Z,988.59
2018-06-08T04:12:15.749Z,988.61
2018-06-08T04:13:15.664Z,988.59
2018-06-08T04:14:15.604Z,988.58
2018-06-08T04:15:15.550Z,988.60
2018-06-08T04:16:15.483Z,988.58
2018-06-08T04:17:15.417Z,988.62
2018-06-08T04:18:15.360Z,988.60
2018-06-08T04:19:15.293Z,988.58
2018-06-08T04:20:15.234Z,988.58
2018-06-08T04:21:15.160Z,988.60
2018-06-08T04:22:15.110Z,988.56
2018-06-08T04:23:15.041Z,988.57
2018-06-08T04:24:14.988Z,988.54
2018-06-08T04:25:14.916Z,988.53
2018-06-08T04:26:14.841Z,988.53
2018-06-08T04:27:14.790Z,988.52
2018-06-08T04:28:14.723Z,988.57
2018-06-08T04:29:14.660Z,988.59
2018-06-08T04:30:14.601Z,988.58
2018-06-08T04:31:14.542Z,988.57
2018-06-08T04:32:14.481Z,988.56
2018-06-08T04:33:14.416Z,988.55
2018-06-08T04:34:14.346Z,988.52
2018-06-08T04:35:14.275Z,988.57
2018-06-08T04:36:14.236Z,988.57
2018-06-08T04:37:14.161Z,988.57
2018-06-08T04:38:14.077Z,988.61
2018-06-08T04:39:14.038Z,988.66
2018-06-08T04:40:13.960Z,988.62
2018-06-08T04:41:13.899Z,988.64
2018-06-08T04:42:13.834Z,988.61
2018-06-08T04:43:13.771Z,988.63
2018-06-08T04:44:13.703Z,988.62
2018-06-08T04:45:13.655Z,988.61
2018-06-08T04:46:13.580Z,988.65
2018-06-08T04:47:13.517Z,988.64
2018-06-08T04:48:13.462Z,988.61
2018-06-08T04:49:13.407Z,988.67
2018-06-08T04:50:13.345Z,988.63
2018-06-08T04:51:13.274Z,988.65
2018-06-08T04:52:13.211Z,988.63
2018-06-08T04:53:13.142Z,988.66
2018-06-08T04:54:13.075Z,988.69
2018-06-08T04:55:13.003Z,988.65
2018-06-08T04:56:12.950Z,988.68
2018-06-08T04:57:12.893Z,988.66
2018-06-08T04:58:12.823Z,988.71
2018-06-08T04:59:12.765Z,988.71
2018-06-08T05:00:12.696Z,988.75
2018-06-08T05:01:12.634Z,988.77
2018-06-08T05:02:12.581Z,988.81
2018-06-08T05:03:12.514Z,988.74
2018-06-08T05:04:12.450Z,988.81
2018-06-08T05:05:12.383Z,988.82
2018-06-08T05:06:12.327Z,988.82
2018-06-08T05:07:12.257Z,988.81
2018-06-08T05:08:12.192Z,988.84
2018-06-08T05:09:12.123Z,988.88
2018-06-08T05:10:12.068Z,988.92
2018-06-08T05:11:12.006Z,988.91
2018-06-08T05:12:11.964Z,988.93
2018-06-08T05:13:11.894Z,988.94
2018-06-08T05:14:11.821Z,988.92
2018-06-08T05:15:11.759Z,988.97
2018-06-08T05:16:11.705Z,988.93
2018-06-08T05:17:11.628Z,988.96
2018-06-08T05:18:11.571Z,988.93
2018-06-08T05:19:11.509Z,988.96
2018-06-08T05:20:11.444Z,988.95
2018-06-08T05:21:11.381Z,988.95
2018-06-08T05:22:11.305Z,988.90
2018-06-08T05:23:11.245Z,988.89
2018-06-08T05:24:11.203Z,988.89
2018-06-08T05:25:11.129Z,988.90
2018-06-08T05:26:11.096Z,988.88
2018-06-08T05:27:10.996Z,988.85
2018-06-08T05:28:10.937Z,988.86
2018-06-08T05:29:10.876Z,988.91
2018-06-08T05:30:10.810Z,988.90
2018-06-08T05:31:10.754Z,988.92
2018-06-08T05:32:10.694Z,988.88
2018-06-08T05:33:10.620Z,988.87
2018-06-08T05:34:10.570Z,988.84
2018-06-08T05:35:10.507Z,988.86
2018-06-08T05:36:10.504Z,988.86
2018-06-08T05:37:10.376Z,988.86
2018-06-08T05:38:10.311Z,988.86
2018-06-08T05:39:10.245Z,988.92
2018-06-08T05:40:10.193Z,988.89
2018-06-08T05:41:10.115Z,988.90
2018-06-08T05:42:10.065Z,988.94
2018-06-08T05:43:10.004Z,988.93
2018-06-08T05:44:09.927Z,988.91
2018-06-08T05:45:09.880Z,988.93
2018-06-08T05:46:09.814Z,988.95
2018-06-08T05:47:09.762Z,988.95
2018-06-08T05:48:09.718Z,988.97
2018-06-08T05:49:09.620Z,988.95
2018-06-08T05:50:09.552Z,988.94
2018-06-08T05:51:09.491Z,988.94
2018-06-08T05:52:09.444Z,988.90
2018-06-08T05:53:09.426Z,988.91
2018-06-08T05:54:09.320Z,988.92
2018-06-08T05:55:09.249Z,988.91
2018-06-08T05:56:09.175Z,988.88
2018-06-08T05:57:09.118Z,988.87
2018-06-08T05:58:09.058Z,988.91
2018-06-08T05:59:08.995Z,988.92
2018-06-08T06:00:08.942Z,988.93
2018-06-08T06:01:08.898Z,988.93
2018-06-08T06:02:08.803Z,988.91
2018-06-08T06:03:08.757Z,988.91
2018-06-08T06:04:08.683Z,988.92
2018-06-08T06:05:08.616Z,988.92
2018-06-08T06:06:08.557Z,988.93
2018-06-08T06:07:08.492Z,988.95
2018-06-08T06:08:08.488Z,988.96
2018-06-08T06:09:08.360Z,988.92
2018-06-08T06:10:08.322Z,988.95
2018-06-08T06:11:08.256Z,988.96
2018-06-08T06:12:08.190Z,988.94
2018-06-08T06:13:08.115Z,988.90
2018-06-08T06:14:08.045Z,988.89
2018-06-08T06:15:07.993Z,988.93
2018-06-08T06:16:07.928Z,988.95
2018-06-08T06:17:07.869Z,988.95
2018-06-08T06:18:07.809Z,988.95
2018-06-08T06:19:07.745Z,988.93
2018-06-08T06:20:07.686Z,988.93
2018-06-08T06:21:07.626Z,988.92
2018-06-08T06:22:07.549Z,988.98
2018-06-08T06:23:07.501Z,988.98
2018-06-08T06:24:07.424Z,988.96
2018-06-08T06:25:07.366Z,988.94
2018-06-08T06:26:07.303Z,988.94
2018-06-08T06:27:07.239Z,988.96
2018-06-08T06:28:07.188Z,988.93
2018-06-08T06:29:07.120Z,988.93
2018-06-08T06:30:07.053Z,988.92
2018-06-08T06:31:07.000Z,988.88
2018-06-08T06:32:06.919Z,988.85
2018-06-08T06:33:06.864Z,988.82
2018-06-08T06:34:06.807Z,988.79
2018-06-08T06:35:06.726Z,988.81
2018-06-08T06:36:06.668Z,988.77
2018-06-08T06:37:06.615Z,988.79
2018-06-08T06:38:06.545Z,988.75
2018-06-08T06:39:06.495Z,988.83
2018-06-08T06:40:06.428Z,988.75
2018-06-08T06:41:06.364Z,988.78
2018-06-08T06:42:06.310Z,988.83
2018-06-08T06:43:06.239Z,988.85
2018-06-08T06:44:06.176Z,988.87
2018-06-08T06:45:06.107Z,988.88
2018-06-08T06:46:06.054Z,988.88
2018-06-08T06:47:05.977Z,988.91
2018-06-08T06:48:05.917Z,988.91
2018-06-08T06:49:05.861Z,988.92
2018-06-08T06:50:05.802Z,988.91
2018-06-08T06:51:05.724Z,988.92
2018-06-08T06:52:05.661Z,988.90
2018-06-08T06:53:05.624Z,988.92
2018-06-08T06:54:05.545Z,988.95
2018-06-08T06:55:05.481Z,988.92
2018-06-08T06:56:05.403Z,989.00
2018-06-08T06:57:05.340Z,988.99
2018-06-08T06:58:05.296Z,988.98
2018-06-08T06:59:05.215Z,989.03
2018-06-08T07:00:05.158Z,989.06
2018-06-08T07:01:05.092Z,989.07
2018-06-08T07:02:05.022Z,989.09
2018-06-08T07:03:04.981Z,989.13
2018-06-08T07:04:04.906Z,989.15
2018-06-08T07:05:04.860Z,989.17
2018-06-08T07:06:04.789Z,989.13
2018-06-08T07:07:04.743Z,989.12
2018-06-08T07:08:04.648Z,989.12
2018-06-08T07:09:04.604Z,989.10
2018-06-08T07:10:04.538Z,989.15
2018-06-08T07:11:04.478Z,989.19
2018-06-08T07:12:04.405Z,989.21
2018-06-08T07:13:04.347Z,989.21
2018-06-08T07:14:04.277Z,989.25
2018-06-08T07:15:04.219Z,989.30
2018-06-08T07:16:04.161Z,989.29
2018-06-08T07:17:04.103Z,989.32
2018-06-08T07:18:04.027Z,989.33
2018-06-08T07:19:03.965Z,989.38
2018-06-08T07:20:03.893Z,989.37
2018-06-08T07:21:03.835Z,989.41
2018-06-08T07:22:03.777Z,989.40
2018-06-08T07:23:03.726Z,989.39
2018-06-08T07:24:03.657Z,989.43
2018-06-08T07:25:03.588Z,989.39
2018-06-08T07:26:03.525Z,989.39
2018-06-08T07:27:03.472Z,989.39
2018-06-08T07:28:03.408Z,989.33
2018-06-08T07:29:03.350Z,989.39
2018-06-08T07:30:03.287Z,989.35
2018-06-08T07:31:03.213Z,989.37
2018-06-08T07:32:03.231Z,989.38
2018-06-08T07:33:03.100Z,989.39
2018-06-08T07:34:03.035Z,989.39
2018-06-08T07:35:02.975Z,989.37
2018-06-08T07:36:02.916Z,989.41
2018-06-08T07:37:02.837Z,989.37
2018-06-08T07:38:02.790Z,989.40
2018-06-08T07:39:02.715Z,989.40
2018-06-08T07:40:02.672Z,989.45
2018-06-08T07:41:02.604Z,989.37
2018-06-08T07:42:02.537Z,989.37
2018-06-08T07:43:02.479Z,989.41
2018-06-08T07:44:02.403Z,989.41
2018-06-08T07:45:02.354Z,989.32
2018-06-08T07:46:02.294Z,989.34
2018-06-08T07:47:02.238Z,989.29
2018-06-08T07:48:02.161Z,989.27
2018-06-08T07:49:02.102Z,989.25
2018-06-08T07:50:02.050Z,989.25
2018-06-08T07:51:01.971Z,989.21
2018-06-08T07:52:01.927Z,989.19
2018-06-08T07:53:01.855Z,989.18
2018-06-08T07:54:01.814Z,989.12
2018-06-08T07:55:01.732Z,989.09
2018-06-08T07:56:01.668Z,989.06
2018-06-08T07:57:01.607Z,989.01
2018-06-08T07:58:01.538Z,989.06
2018-06-08T07:59:01.480Z,989.11
2018-06-08T08:00:01.426Z,989.11
2018-06-08T08:01:01.347Z,989.15
2018-06-08T08:02:01.293Z,989.08
2018-06-08T08:03:01.238Z,989.08
2018-06-08T08:04:01.175Z,989.06
2018-06-08T08:05:01.101Z,989.07
2018-06-08T08:06:01.046Z,989.08
2018-06-08T08:07:00.986Z,989.11
2018-06-08T08:08:00.910Z,989.10
2018-06-08T08:09:00.852Z,989.11
2018-06-08T08:10:00.788Z,989.13
2018-06-08T08:11:00.736Z,989.17
2018-06-08T08:12:00.692Z,989.18
2018-06-08T08:13:00.598Z,989.19
2018-06-08T08:14:00.545Z,989.16
2018-06-08T08:15:00.465Z,989.17
2018-06-08T08:16:00.408Z,989.15
2018-06-08T08:17:00.350Z,989.19
2018-06-08T08:18:00.286Z,989.20
2018-06-08T08:19:00.224Z,989.16
2018-06-08T08:20:00.168Z,989.15
2018-06-08T08:21:00.110Z,989.18
2018-06-08T08:22:00.066Z,989.17
2018-06-08T08:22:59.970Z,989.16
2018-06-08T08:23:59.898Z,989.12
2018-06-08T08:24:59.854Z,989.11
2018-06-08T08:25:59.794Z,989.13
2018-06-08T08:26:59.728Z,989.07
2018-06-08T08:27:59.670Z,989.09
2018-06-08T08:28:59.596Z,989.11
2018-06-08T08:29:59.532Z,989.13
2018-06-08T08:30:59.476Z,989.15
2018-06-08T08:31:59.401Z,989.15
2018-06-08T08:32:59.350Z,989.16
2018-06-08T08:33:59.290Z,989.12
2018-06-08T08:34:59.218Z,989.15
2018-06-08T08:35:59.163Z,989.12
2018-06-08T08:36:59.102Z,989.16
2018-06-08T08:37:59.052Z,989.13
2018-06-08T08:38:58.963Z,989.12
2018-06-08T08:39:58.918Z,989.11
2018-06-08T08:40:58.851Z,989.09
2018-06-08T08:41:58.786Z,989.08
2018-06-08T08:42:58.720Z,989.08
2018-06-08T08:43:58.651Z,989.10
2018-06-08T08:44:58.591Z,989.04
2018-06-08T08:45:58.530Z,989.07
2018-06-08T08:46:58.476Z,989.04
2018-06-08T08:47:58.424Z,989.03
2018-06-08T08:48:58.349Z,989.07
2018-06-08T08:49:58.284Z,989.05
2018-06-08T08:50:58.246Z,989.04
2018-06-08T08:51:58.188Z,989.02
2018-06-08T08:52:58.104Z,989.05
2018-06-08T08:53:58.062Z,989.08
2018-06-08T08:54:57.980Z,989.03
2018-06-08T08:55:57.909Z,989.02
2018-06-08T08:56:57.901Z,988.98
2018-06-08T08:57:57.777Z,988.99
2018-06-08T08:58:57.737Z,988.98
2018-06-08T08:59:57.664Z,988.97
2018-06-08T09:00:57.626Z,988.99
2018-06-08T09:01:57.530Z,989.00
2018-06-08T09:02:57.468Z,989.01
2018-06-08T09:03:57.413Z,988.98
2018-06-08T09:04:57.361Z,988.98
2018-06-08T09:05:57.291Z,988.97
2018-06-08T09:06:57.237Z,988.93
2018-06-08T09:07:57.159Z,988.97
2018-06-08T09:08:57.093Z,988.93
2018-06-08T09:09:57.049Z,988.97
2018-06-08T09:10:56.982Z,988.96
2018-06-08T09:11:56.924Z,988.99
2018-06-08T09:12:56.849Z,988.96
2018-06-08T09:13:56.789Z,989.01
2018-06-08T09:14:56.737Z,988.98
2018-06-08T09:15:56.676Z,988.99
2018-06-08T09:16:56.606Z,989.01
2018-06-08T09:17:56.542Z,989.00
2018-06-08T09:18:56.485Z,989.00
2018-06-08T09:19:56.429Z,989.02
2018-06-08T09:20:56.347Z,989.02
2018-06-08T09:21:56.294Z,989.03
2018-06-08T09:22:56.223Z,989.00
2018-06-08T09:23:56.169Z,989.05
2018-06-08T09:24:56.112Z,989.07
2018-06-08T09:25:56.051Z,989.10
2018-06-08T09:26:55.982Z,989.07
2018-06-08T09:27:55.919Z,989.04
2018-06-08T09:28:55.865Z,989.09
2018-06-08T09:29:55.796Z,989.06
2018-06-08T09:30:55.743Z,989.08
2018-06-08T09:31:55.666Z,989.05
2018-06-08T09:32:55.603Z,989.06
2018-06-08T09:33:55.545Z,989.05
2018-06-08T09:34:55.482Z,989.05
2018-06-08T09:35:55.424Z,989.04
2018-06-08T09:36:55.366Z,989.11
2018-06-08T09:37:55.300Z,989.07
2018-06-08T09:38:55.248Z,989.08
2018-06-08T09:39:55.193Z,989.08
2018-06-08T09:40:55.120Z,989.05
2018-06-08T09:41:55.061Z,989.06
2018-06-08T09:42:55.004Z,989.05
2018-06-08T09:43:54.938Z,989.03
2018-06-08T09:44:54.874Z,989.05
2018-06-08T09:45:54.822Z,989.04
2018-06-08T09:46:54.748Z,989.04
2018-06-08T09:47:54.691Z,989.02
2018-06-08T09:48:54.618Z,989.01
2018-06-08T09:49:54.568Z,989.04
2018-06-08T09:50:54.505Z,989.04
2018-06-08T09:51:54.446Z,989.04
2018-06-08T09:52:54.387Z,989.07
2018-06-08T09:53:54.305Z,989.02
2018-06-08T09:54:54.255Z,989.01
2018-06-08T09:55:54.195Z,989.07
2018-06-08T09:56:54.124Z,989.02
2018-06-08T09:57:54.079Z,989.02
2018-06-08T09:58:54.016Z,989.00
2018-06-08T09:59:53.940Z,989.03
2018-06-08T10:00:53.880Z,988.96
2018-06-08T10:01:53.816Z,989.03
2018-06-08T10:02:53.753Z,988.97
2018-06-08T10:03:53.689Z,988.97
2018-06-08T10:04:53.643Z,988.98
2018-06-08T10:05:53.565Z,988.99
2018-06-08T10:06:53.519Z,989.03
2018-06-08T10:07:53.474Z,989.05
2018-06-08T10:08:53.396Z,989.07
2018-06-08T10:09:53.313Z,989.07
2018-06-08T10:10:53.261Z,989.07
2018-06-08T10:11:53.201Z,989.08
2018-06-08T10:12:53.138Z,989.05
2018-06-08T10:13:53.069Z,989.07
2018-06-08T10:14:53.022Z,989.04
2018-06-08T10:15:52.956Z,989.02
2018-06-08T10:16:52.912Z,989.07
2018-06-08T10:17:52.835Z,989.08
2018-06-08T10:18:52.773Z,989.07
2018-06-08T10:19:52.699Z,989.09
2018-06-08T10:20:52.638Z,989.11
2018-06-08T10:21:52.643Z,989.05
2018-06-08T10:22:52.527Z,989.10
2018-06-08T10:23:52.457Z,989.08
2018-06-08T10:24:52.404Z,989.10
2018-06-08T10:25:52.339Z,989.08
2018-06-08T10:26:52.279Z,989.12
2018-06-08T10:27:52.199Z,989.09
2018-06-08T10:28:52.155Z,989.09
2018-06-08T10:29:52.089Z,989.06
2018-06-08T10:30:52.027Z,989.06
2018-06-08T10:31:51.972Z,989.07
2018-06-08T10:32:51.890Z,989.05
2018-06-08T10:33:51.828Z,989.03
2018-06-08T10:34:51.779Z,989.03
2018-06-08T10:35:51.723Z,989.02
2018-06-08T10:36:51.659Z,989.02
2018-06-08T10:37:51.601Z,988.96
2018-06-08T10:38:51.517Z,988.96
2018-06-08T10:39:51.479Z,988.93
2018-06-08T10:40:51.419Z,988.90
2018-06-08T10:41:51.349Z,988.89
2018-06-08T10:42:51.287Z,988.88
2018-06-08T10:43:51.227Z,988.86
2018-06-08T10:44:51.147Z,988.80
2018-06-08T10:45:51.088Z,988.83
2018-06-08T10:46:51.034Z,988.82
2018-06-08T10:47:50.977Z,988.70
2018-06-08T10:48:50.911Z,988.80
2018-06-08T10:49:50.850Z,988.77
2018-06-08T10:50:50.800Z,988.79
2018-06-08T10:51:50.713Z,988.75
2018-06-08T10:52:50.667Z,988.74
2018-06-08T10:53:50.625Z,988.73
2018-06-08T10:54:50.543Z,988.72
2018-06-08T10:55:50.507Z,988.74
2018-06-08T10:56:50.412Z,988.75
2018-06-08T10:57:50.349Z,988.73
2018-06-08T10:58:50.296Z,988.66
2018-06-08T10:59:50.225Z,988.75
2018-06-08T11:00:50.182Z,988.69
2018-06-08T11:01:50.104Z,988.67
2018-06-08T11:02:50.037Z,988.70
2018-06-08T11:03:49.979Z,988.63
2018-06-08T11:04:49.934Z,988.65
2018-06-08T11:05:49.850Z,988.68
2018-06-08T11:06:49.799Z,988.64
2018-06-08T11:07:49.744Z,988.60
2018-06-08T11:08:49.670Z,988.63
2018-06-08T11:09:49.609Z,988.56
2018-06-08T11:10:49.553Z,988.63
2018-06-08T11:11:49.490Z,988.60
2018-06-08T11:12:49.427Z,988.58
2018-06-08T11:13:49.370Z,988.58
2018-06-08T11:14:49.302Z,988.50
2018-06-08T11:15:49.256Z,988.52
2018-06-08T11:16:49.205Z,988.54
2018-06-08T11:17:49.127Z,988.54
2018-06-08T11:18:49.083Z,988.55
2018-06-08T11:19:49.023Z,988.56
2018-06-08T11:20:48.949Z,988.58
2018-06-08T11:21:48.882Z,988.51
2018-06-08T11:22:48.823Z,988.53
2018-06-08T11:23:48.761Z,988.52
2018-06-08T11:24:48.696Z,988.52
2018-06-08T11:25:48.638Z,988.51
2018-06-08T11:26:48.605Z,988.50
2018-06-08T11:27:48.515Z,988.46
2018-06-08T11:28:48.452Z,988.44
2018-06-08T11:29:48.391Z,988.46
2018-06-08T11:30:48.330Z,988.46
2018-06-08T11:31:48.274Z,988.48
2018-06-08T11:32:48.208Z,988.43
2018-06-08T11:33:48.139Z,988.46
2018-06-08T11:34:48.087Z,988.41
2018-06-08T11:35:48.024Z,988.44
2018-06-08T11:36:47.965Z,988.40
2018-06-08T11:37:47.898Z,988.41
2018-06-08T11:38:47.847Z,988.39
2018-06-08T11:39:47.783Z,988.39
2018-06-08T11:40:47.727Z,988.40
2018-06-08T11:41:47.658Z,988.32
2018-06-08T11:42:47.592Z,988.35
2018-06-08T11:43:47.538Z,988.31
2018-06-08T11:44:47.468Z,988.29
2018-06-08T11:45:47.442Z,988.30
2018-06-08T11:46:49.057Z,988.27
2018-06-08T11:47:47.286Z,988.25
2018-06-08T11:48:47.220Z,988.24
2018-06-08T11:49:47.171Z,988.30
2018-06-08T11:50:47.101Z,988.29
2018-06-08T11:51:47.055Z,988.28
2018-06-08T11:52:46.980Z,988.31
2018-06-08T11:53:46.915Z,988.28
2018-06-08T11:54:46.860Z,988.29
2018-06-08T11:55:46.808Z,988.27
2018-06-08T11:56:46.738Z,988.24
2018-06-08T11:57:46.669Z,988.19
2018-06-08T11:58:46.606Z,988.20
2018-06-08T11:59:46.557Z,988.18
2018-06-08T12:00:46.501Z,988.18
2018-06-08T12:01:46.438Z,988.13
2018-06-08T12:02:46.353Z,988.13
2018-06-08T12:03:46.317Z,988.11
2018-06-08T12:04:46.259Z,988.13
2018-06-08T12:05:46.202Z,988.14
2018-06-08T12:06:46.128Z,988.10
2018-06-08T12:07:46.054Z,988.14
2018-06-08T12:08:46.017Z,988.14
2018-06-08T12:09:45.931Z,988.17
2018-06-08T12:10:45.883Z,988.10
2018-06-08T12:11:45.816Z,988.12
2018-06-08T12:12:45.762Z,988.11
2018-06-08T12:13:45.707Z,988.09
2018-06-08T12:14:45.652Z,988.12
2018-06-08T12:15:45.577Z,988.08
2018-06-08T12:16:45.526Z,988.10
2018-06-08T12:17:45.446Z,988.10
2018-06-08T12:18:45.385Z,988.08
2018-06-08T12:19:45.320Z,988.07
2018-06-08T12:20:45.265Z,988.04
2018-06-08T12:21:45.204Z,988.03
2018-06-08T12:22:45.149Z,988.06
2018-06-08T12:23:45.087Z,988.08
2018-06-08T12:24:45.029Z,988.10
2018-06-08T12:25:44.969Z,988.06
2018-06-08T12:26:44.894Z,988.03
2018-06-08T12:27:44.840Z,988.01